sensor_id;sensor_type;location;lat;lon;timestamp;P1;durP1;ratioP1;P2;durP2;ratioP2
66800;SDS011;53703;50.326;19.122;2023-07-28T00:00:09;5.10;;;2.50;;
66800;SDS011;53703;50.326;19.122;2023-07-28T00:03:02;4.70;;;2.40;;
66800;SDS011;53703;50.326;19.122;2023-07-28T00:05:36;6.20;;;2.90;;
66800;SDS011;53703;50.326;19.122;2023-07-28T00:08:10;5.00;;;2.90;;
66800;SDS011;53703;50.326;19.122;2023-07-28T00:10:43;4.20;;;2.70;;
66800;SDS011;53703;50.326;19.122;2023-07-28T00:13:16;6.50;;;3.00;;
66800;SDS011;53703;50.326;19.122;2023-07-28T00:15:49;4.60;;;2.60;;
66800;SDS011;53703;50.326;19.122;2023-07-28T00:18:23;4.00;;;2.30;;
66800;SDS011;53703;50.326;19.122;2023-07-28T00:20:56;3.60;;;2.30;;
66800;SDS011;53703;50.326;19.122;2023-07-28T00:23:29;6.90;;;2.20;;
66800;SDS011;53703;50.326;19.122;2023-07-28T00:26:03;6.80;;;2.50;;
66800;SDS011;53703;50.326;19.122;2023-07-28T00:28:36;3.70;;;2.30;;
66800;SDS011;53703;50.326;19.122;2023-07-28T00:31:09;4.90;;;2.50;;
66800;SDS011;53703;50.326;19.122;2023-07-28T00:33:42;3.70;;;2.40;;
66800;SDS011;53703;50.326;19.122;2023-07-28T00:36:16;5.70;;;2.60;;
66800;SDS011;53703;50.326;19.122;2023-07-28T00:38:49;4.90;;;2.10;;
66800;SDS011;53703;50.326;19.122;2023-07-28T00:41:22;6.30;;;2.20;;
66800;SDS011;53703;50.326;19.122;2023-07-28T00:43:56;5.80;;;2.30;;
66800;SDS011;53703;50.326;19.122;2023-07-28T00:46:29;4.70;;;2.20;;
66800;SDS011;53703;50.326;19.122;2023-07-28T00:49:03;6.00;;;2.20;;
66800;SDS011;53703;50.326;19.122;2023-07-28T00:51:37;3.90;;;2.10;;
66800;SDS011;53703;50.326;19.122;2023-07-28T00:54:11;3.70;;;2.00;;
66800;SDS011;53703;50.326;19.122;2023-07-28T00:56:45;4.00;;;2.60;;
66800;SDS011;53703;50.326;19.122;2023-07-28T00:59:19;4.10;;;2.30;;
66800;SDS011;53703;50.326;19.122;2023-07-28T01:01:53;5.40;;;2.70;;
66800;SDS011;53703;50.326;19.122;2023-07-28T01:04:26;3.70;;;2.20;;
66800;SDS011;53703;50.326;19.122;2023-07-28T01:07:04;3.90;;;2.30;;
66800;SDS011;53703;50.326;19.122;2023-07-28T01:09:46;5.40;;;1.90;;
66800;SDS011;53703;50.326;19.122;2023-07-28T01:12:25;3.50;;;1.90;;
66800;SDS011;53703;50.326;19.122;2023-07-28T01:14:58;3.60;;;2.20;;
66800;SDS011;53703;50.326;19.122;2023-07-28T01:17:31;5.30;;;2.00;;
66800;SDS011;53703;50.326;19.122;2023-07-28T01:20:06;3.70;;;1.90;;
66800;SDS011;53703;50.326;19.122;2023-07-28T01:22:51;3.60;;;1.90;;
66800;SDS011;53703;50.326;19.122;2023-07-28T01:25:43;4.40;;;1.90;;
66800;SDS011;53703;50.326;19.122;2023-07-28T01:28:26;3.00;;;1.80;;
66800;SDS011;53703;50.326;19.122;2023-07-28T01:31:00;4.10;;;1.90;;
66800;SDS011;53703;50.326;19.122;2023-07-28T01:33:34;3.80;;;1.70;;
66800;SDS011;53703;50.326;19.122;2023-07-28T01:36:08;3.30;;;2.00;;
66800;SDS011;53703;50.326;19.122;2023-07-28T01:38:42;3.30;;;1.90;;
66800;SDS011;53703;50.326;19.122;2023-07-28T01:41:15;5.10;;;1.90;;
66800;SDS011;53703;50.326;19.122;2023-07-28T01:43:48;3.80;;;1.90;;
66800;SDS011;53703;50.326;19.122;2023-07-28T01:46:25;4.00;;;1.80;;
66800;SDS011;53703;50.326;19.122;2023-07-28T01:48:59;4.10;;;1.80;;
66800;SDS011;53703;50.326;19.122;2023-07-28T01:51:32;3.40;;;1.60;;
66800;SDS011;53703;50.326;19.122;2023-07-28T01:54:05;3.40;;;1.60;;
66800;SDS011;53703;50.326;19.122;2023-07-28T01:56:38;3.40;;;1.80;;
66800;SDS011;53703;50.326;19.122;2023-07-28T01:59:12;3.00;;;1.80;;
66800;SDS011;53703;50.326;19.122;2023-07-28T02:01:45;3.40;;;1.70;;
66800;SDS011;53703;50.326;19.122;2023-07-28T02:04:18;3.40;;;1.80;;
66800;SDS011;53703;50.326;19.122;2023-07-28T02:06:52;2.30;;;1.30;;
66800;SDS011;53703;50.326;19.122;2023-07-28T02:09:25;3.10;;;1.70;;
66800;SDS011;53703;50.326;19.122;2023-07-28T02:11:58;2.90;;;1.60;;
66800;SDS011;53703;50.326;19.122;2023-07-28T02:14:31;5.30;;;1.80;;
66800;SDS011;53703;50.326;19.122;2023-07-28T02:17:05;3.60;;;2.10;;
66800;SDS011;53703;50.326;19.122;2023-07-28T02:19:38;3.90;;;1.80;;
66800;SDS011;53703;50.326;19.122;2023-07-28T02:22:12;2.70;;;1.50;;
66800;SDS011;53703;50.326;19.122;2023-07-28T02:24:45;3.30;;;1.60;;
66800;SDS011;53703;50.326;19.122;2023-07-28T02:27:19;4.50;;;1.70;;
66800;SDS011;53703;50.326;19.122;2023-07-28T02:29:52;3.80;;;1.80;;
66800;SDS011;53703;50.326;19.122;2023-07-28T02:32:25;8.30;;;1.70;;
66800;SDS011;53703;50.326;19.122;2023-07-28T02:34:59;3.30;;;1.70;;
66800;SDS011;53703;50.326;19.122;2023-07-28T02:37:32;3.10;;;1.90;;
66800;SDS011;53703;50.326;19.122;2023-07-28T02:40:07;3.50;;;1.50;;
66800;SDS011;53703;50.326;19.122;2023-07-28T02:42:43;2.80;;;1.70;;
66800;SDS011;53703;50.326;19.122;2023-07-28T02:45:16;3.80;;;1.80;;
66800;SDS011;53703;50.326;19.122;2023-07-28T02:47:50;2.30;;;1.60;;
66800;SDS011;53703;50.326;19.122;2023-07-28T02:50:23;3.50;;;1.80;;
66800;SDS011;53703;50.326;19.122;2023-07-28T02:52:57;3.30;;;1.70;;
66800;SDS011;53703;50.326;19.122;2023-07-28T02:55:30;3.10;;;1.60;;
66800;SDS011;53703;50.326;19.122;2023-07-28T02:58:03;3.40;;;1.80;;
66800;SDS011;53703;50.326;19.122;2023-07-28T03:00:37;3.00;;;1.40;;
66800;SDS011;53703;50.326;19.122;2023-07-28T03:03:12;2.70;;;1.70;;
66800;SDS011;53703;50.326;19.122;2023-07-28T03:05:45;3.00;;;1.80;;
66800;SDS011;53703;50.326;19.122;2023-07-28T03:08:22;3.70;;;2.00;;
66800;SDS011;53703;50.326;19.122;2023-07-28T03:10:58;4.50;;;2.00;;
66800;SDS011;53703;50.326;19.122;2023-07-28T03:13:32;4.00;;;2.10;;
66800;SDS011;53703;50.326;19.122;2023-07-28T03:16:06;3.60;;;1.90;;
66800;SDS011;53703;50.326;19.122;2023-07-28T03:18:40;4.70;;;2.20;;
66800;SDS011;53703;50.326;19.122;2023-07-28T03:21:13;4.70;;;2.30;;
66800;SDS011;53703;50.326;19.122;2023-07-28T03:23:47;3.80;;;2.10;;
66800;SDS011;53703;50.326;19.122;2023-07-28T03:26:20;5.90;;;2.30;;
66800;SDS011;53703;50.326;19.122;2023-07-28T03:28:53;3.80;;;2.10;;
66800;SDS011;53703;50.326;19.122;2023-07-28T03:31:26;5.80;;;2.10;;
66800;SDS011;53703;50.326;19.122;2023-07-28T03:34:00;4.90;;;2.20;;
66800;SDS011;53703;50.326;19.122;2023-07-28T03:36:33;3.90;;;2.20;;
66800;SDS011;53703;50.326;19.122;2023-07-28T03:39:07;4.80;;;1.90;;
66800;SDS011;53703;50.326;19.122;2023-07-28T03:41:40;4.30;;;2.20;;
66800;SDS011;53703;50.326;19.122;2023-07-28T03:44:13;4.30;;;2.20;;
66800;SDS011;53703;50.326;19.122;2023-07-28T03:46:47;5.30;;;2.50;;
66800;SDS011;53703;50.326;19.122;2023-07-28T03:49:20;4.40;;;2.10;;
66800;SDS011;53703;50.326;19.122;2023-07-28T03:51:53;3.80;;;2.00;;
66800;SDS011;53703;50.326;19.122;2023-07-28T03:54:26;6.30;;;2.60;;
66800;SDS011;53703;50.326;19.122;2023-07-28T03:57:00;5.00;;;1.90;;
66800;SDS011;53703;50.326;19.122;2023-07-28T03:59:33;4.40;;;2.50;;
66800;SDS011;53703;50.326;19.122;2023-07-28T04:02:06;4.20;;;2.50;;
66800;SDS011;53703;50.326;19.122;2023-07-28T04:04:40;5.80;;;2.40;;
66800;SDS011;53703;50.326;19.122;2023-07-28T04:07:14;5.60;;;2.10;;
66800;SDS011;53703;50.326;19.122;2023-07-28T04:09:47;7.90;;;2.20;;
66800;SDS011;53703;50.326;19.122;2023-07-28T04:12:20;6.10;;;2.80;;
66800;SDS011;53703;50.326;19.122;2023-07-28T04:14:53;3.30;;;2.00;;
66800;SDS011;53703;50.326;19.122;2023-07-28T04:17:27;3.60;;;2.00;;
66800;SDS011;53703;50.326;19.122;2023-07-28T04:20:00;4.40;;;2.20;;
66800;SDS011;53703;50.326;19.122;2023-07-28T04:22:34;3.30;;;2.10;;
66800;SDS011;53703;50.326;19.122;2023-07-28T04:25:08;4.80;;;2.20;;
66800;SDS011;53703;50.326;19.122;2023-07-28T04:27:41;4.70;;;2.00;;
66800;SDS011;53703;50.326;19.122;2023-07-28T04:30:15;5.70;;;2.00;;
66800;SDS011;53703;50.326;19.122;2023-07-28T04:32:48;4.40;;;2.40;;
66800;SDS011;53703;50.326;19.122;2023-07-28T04:35:21;5.00;;;2.20;;
66800;SDS011;53703;50.326;19.122;2023-07-28T04:37:54;8.20;;;2.20;;
66800;SDS011;53703;50.326;19.122;2023-07-28T04:40:28;4.70;;;2.00;;
66800;SDS011;53703;50.326;19.122;2023-07-28T04:43:01;6.50;;;2.00;;
66800;SDS011;53703;50.326;19.122;2023-07-28T04:45:34;5.20;;;1.80;;
66800;SDS011;53703;50.326;19.122;2023-07-28T04:48:08;5.00;;;1.90;;
66800;SDS011;53703;50.326;19.122;2023-07-28T04:50:41;4.30;;;2.10;;
66800;SDS011;53703;50.326;19.122;2023-07-28T04:53:15;5.60;;;2.00;;
66800;SDS011;53703;50.326;19.122;2023-07-28T04:55:49;3.80;;;2.00;;
66800;SDS011;53703;50.326;19.122;2023-07-28T04:58:22;5.20;;;2.10;;
66800;SDS011;53703;50.326;19.122;2023-07-28T05:00:55;4.00;;;2.10;;
66800;SDS011;53703;50.326;19.122;2023-07-28T05:03:29;4.20;;;2.30;;
66800;SDS011;53703;50.326;19.122;2023-07-28T05:06:03;3.50;;;2.00;;
66800;SDS011;53703;50.326;19.122;2023-07-28T05:08:37;5.40;;;2.20;;
66800;SDS011;53703;50.326;19.122;2023-07-28T05:11:10;4.00;;;2.00;;
66800;SDS011;53703;50.326;19.122;2023-07-28T05:13:43;4.30;;;2.20;;
66800;SDS011;53703;50.326;19.122;2023-07-28T05:16:17;5.00;;;1.80;;
66800;SDS011;53703;50.326;19.122;2023-07-28T05:18:50;4.60;;;2.10;;
66800;SDS011;53703;50.326;19.122;2023-07-28T05:21:23;3.40;;;1.70;;
66800;SDS011;53703;50.326;19.122;2023-07-28T05:23:57;4.40;;;2.20;;
66800;SDS011;53703;50.326;19.122;2023-07-28T05:26:30;8.40;;;2.40;;
66800;SDS011;53703;50.326;19.122;2023-07-28T05:29:03;3.50;;;2.00;;
66800;SDS011;53703;50.326;19.122;2023-07-28T05:31:37;5.60;;;2.10;;
66800;SDS011;53703;50.326;19.122;2023-07-28T05:34:10;4.90;;;2.10;;
66800;SDS011;53703;50.326;19.122;2023-07-28T05:36:44;3.60;;;2.00;;
66800;SDS011;53703;50.326;19.122;2023-07-28T05:39:17;5.90;;;2.10;;
66800;SDS011;53703;50.326;19.122;2023-07-28T05:41:50;4.30;;;2.10;;
66800;SDS011;53703;50.326;19.122;2023-07-28T05:44:24;4.00;;;1.90;;
66800;SDS011;53703;50.326;19.122;2023-07-28T05:46:58;5.50;;;2.20;;
66800;SDS011;53703;50.326;19.122;2023-07-28T05:49:31;5.00;;;2.10;;
66800;SDS011;53703;50.326;19.122;2023-07-28T05:52:05;3.80;;;2.10;;
66800;SDS011;53703;50.326;19.122;2023-07-28T05:54:39;3.50;;;2.00;;
66800;SDS011;53703;50.326;19.122;2023-07-28T05:57:12;3.20;;;2.10;;
66800;SDS011;53703;50.326;19.122;2023-07-28T05:59:45;3.60;;;2.00;;
66800;SDS011;53703;50.326;19.122;2023-07-28T06:02:19;5.90;;;2.10;;
66800;SDS011;53703;50.326;19.122;2023-07-28T06:04:52;3.10;;;1.80;;
66800;SDS011;53703;50.326;19.122;2023-07-28T06:07:25;3.40;;;2.00;;
66800;SDS011;53703;50.326;19.122;2023-07-28T06:09:59;4.60;;;1.90;;
66800;SDS011;53703;50.326;19.122;2023-07-28T06:12:32;5.10;;;1.80;;
66800;SDS011;53703;50.326;19.122;2023-07-28T06:15:08;5.60;;;2.20;;
66800;SDS011;53703;50.326;19.122;2023-07-28T06:17:42;4.10;;;1.90;;
66800;SDS011;53703;50.326;19.122;2023-07-28T06:20:15;4.60;;;2.10;;
66800;SDS011;53703;50.326;19.122;2023-07-28T06:22:49;3.60;;;1.90;;
66800;SDS011;53703;50.326;19.122;2023-07-28T06:25:22;4.10;;;2.50;;
66800;SDS011;53703;50.326;19.122;2023-07-28T06:27:55;4.00;;;2.30;;
66800;SDS011;53703;50.326;19.122;2023-07-28T06:30:29;4.20;;;2.20;;
66800;SDS011;53703;50.326;19.122;2023-07-28T06:33:02;4.60;;;2.00;;
66800;SDS011;53703;50.326;19.122;2023-07-28T06:35:37;4.80;;;1.90;;
66800;SDS011;53703;50.326;19.122;2023-07-28T06:38:10;4.30;;;2.20;;
66800;SDS011;53703;50.326;19.122;2023-07-28T06:40:43;3.10;;;1.90;;
66800;SDS011;53703;50.326;19.122;2023-07-28T06:43:17;9.60;;;2.00;;
66800;SDS011;53703;50.326;19.122;2023-07-28T06:45:53;3.70;;;2.10;;
66800;SDS011;53703;50.326;19.122;2023-07-28T06:48:26;7.40;;;2.30;;
66800;SDS011;53703;50.326;19.122;2023-07-28T06:51:00;8.60;;;2.50;;
66800;SDS011;53703;50.326;19.122;2023-07-28T06:53:33;4.80;;;2.10;;
66800;SDS011;53703;50.326;19.122;2023-07-28T06:56:06;3.80;;;2.20;;
66800;SDS011;53703;50.326;19.122;2023-07-28T06:58:40;4.60;;;2.20;;
66800;SDS011;53703;50.326;19.122;2023-07-28T07:01:24;4.60;;;2.10;;
66800;SDS011;53703;50.326;19.122;2023-07-28T07:03:57;4.40;;;2.30;;
66800;SDS011;53703;50.326;19.122;2023-07-28T07:06:31;4.50;;;2.50;;
66800;SDS011;53703;50.326;19.122;2023-07-28T07:09:04;4.10;;;2.50;;
66800;SDS011;53703;50.326;19.122;2023-07-28T07:11:38;4.60;;;2.20;;
66800;SDS011;53703;50.326;19.122;2023-07-28T07:14:11;4.00;;;2.40;;
66800;SDS011;53703;50.326;19.122;2023-07-28T07:16:47;4.60;;;2.50;;
66800;SDS011;53703;50.326;19.122;2023-07-28T07:19:20;4.90;;;2.70;;
66800;SDS011;53703;50.326;19.122;2023-07-28T07:21:53;4.20;;;2.20;;
66800;SDS011;53703;50.326;19.122;2023-07-28T07:24:27;9.20;;;2.20;;
66800;SDS011;53703;50.326;19.122;2023-07-28T07:27:00;3.80;;;2.30;;
66800;SDS011;53703;50.326;19.122;2023-07-28T07:29:34;3.20;;;2.30;;
66800;SDS011;53703;50.326;19.122;2023-07-28T07:32:08;3.10;;;2.30;;
66800;SDS011;53703;50.326;19.122;2023-07-28T07:34:42;3.70;;;2.20;;
66800;SDS011;53703;50.326;19.122;2023-07-28T07:37:15;4.00;;;2.60;;
66800;SDS011;53703;50.326;19.122;2023-07-28T07:39:48;3.80;;;2.30;;
66800;SDS011;53703;50.326;19.122;2023-07-28T07:42:21;3.60;;;2.10;;
66800;SDS011;53703;50.326;19.122;2023-07-28T07:44:55;5.80;;;2.90;;
66800;SDS011;53703;50.326;19.122;2023-07-28T07:47:28;7.50;;;2.50;;
66800;SDS011;53703;50.326;19.122;2023-07-28T07:50:01;6.20;;;2.40;;
66800;SDS011;53703;50.326;19.122;2023-07-28T07:52:35;4.40;;;2.40;;
66800;SDS011;53703;50.326;19.122;2023-07-28T07:55:11;4.70;;;2.70;;
66800;SDS011;53703;50.326;19.122;2023-07-28T07:57:45;5.30;;;2.50;;
66800;SDS011;53703;50.326;19.122;2023-07-28T08:00:19;5.70;;;2.70;;
66800;SDS011;53703;50.326;19.122;2023-07-28T08:02:53;4.70;;;2.30;;
66800;SDS011;53703;50.326;19.122;2023-07-28T08:05:26;5.00;;;2.70;;
66800;SDS011;53703;50.326;19.122;2023-07-28T08:07:59;4.40;;;2.70;;
66800;SDS011;53703;50.326;19.122;2023-07-28T08:10:33;4.80;;;2.30;;
66800;SDS011;53703;50.326;19.122;2023-07-28T08:13:07;5.50;;;2.40;;
66800;SDS011;53703;50.326;19.122;2023-07-28T08:15:40;4.20;;;2.90;;
66800;SDS011;53703;50.326;19.122;2023-07-28T08:18:16;4.80;;;2.50;;
66800;SDS011;53703;50.326;19.122;2023-07-28T08:20:50;4.10;;;2.60;;
66800;SDS011;53703;50.326;19.122;2023-07-28T08:23:23;7.60;;;3.20;;
66800;SDS011;53703;50.326;19.122;2023-07-28T08:25:56;4.50;;;3.00;;
66800;SDS011;53703;50.326;19.122;2023-07-28T08:28:30;4.70;;;3.00;;
66800;SDS011;53703;50.326;19.122;2023-07-28T08:31:04;5.10;;;3.10;;
66800;SDS011;53703;50.326;19.122;2023-07-28T08:33:37;6.90;;;3.10;;
66800;SDS011;53703;50.326;19.122;2023-07-28T08:36:11;7.30;;;3.10;;
66800;SDS011;53703;50.326;19.122;2023-07-28T08:38:44;8.20;;;3.10;;
66800;SDS011;53703;50.326;19.122;2023-07-28T08:41:18;5.90;;;2.90;;
66800;SDS011;53703;50.326;19.122;2023-07-28T08:43:52;6.90;;;3.60;;
66800;SDS011;53703;50.326;19.122;2023-07-28T08:46:25;7.40;;;3.50;;
66800;SDS011;53703;50.326;19.122;2023-07-28T08:48:59;5.30;;;3.20;;
66800;SDS011;53703;50.326;19.122;2023-07-28T08:51:32;6.50;;;3.20;;
66800;SDS011;53703;50.326;19.122;2023-07-28T08:54:06;6.50;;;3.20;;
66800;SDS011;53703;50.326;19.122;2023-07-28T08:56:39;5.50;;;2.80;;
66800;SDS011;53703;50.326;19.122;2023-07-28T08:59:13;7.00;;;3.40;;
66800;SDS011;53703;50.326;19.122;2023-07-28T09:01:57;5.40;;;3.10;;
66800;SDS011;53703;50.326;19.122;2023-07-28T09:04:30;5.90;;;3.10;;
66800;SDS011;53703;50.326;19.122;2023-07-28T09:07:05;7.50;;;2.90;;
66800;SDS011;53703;50.326;19.122;2023-07-28T09:09:40;4.30;;;2.90;;
66800;SDS011;53703;50.326;19.122;2023-07-28T09:12:13;5.80;;;3.00;;
66800;SDS011;53703;50.326;19.122;2023-07-28T09:14:47;4.70;;;2.80;;
66800;SDS011;53703;50.326;19.122;2023-07-28T09:17:27;4.70;;;2.90;;
66800;SDS011;53703;50.326;19.122;2023-07-28T09:20:15;10.30;;;3.20;;
66800;SDS011;53703;50.326;19.122;2023-07-28T09:22:49;6.80;;;2.70;;
66800;SDS011;53703;50.326;19.122;2023-07-28T09:25:24;4.30;;;2.40;;
66800;SDS011;53703;50.326;19.122;2023-07-28T09:27:59;8.40;;;3.20;;
66800;SDS011;53703;50.326;19.122;2023-07-28T09:30:46;6.40;;;3.10;;
66800;SDS011;53703;50.326;19.122;2023-07-28T09:33:35;7.20;;;2.90;;
66800;SDS011;53703;50.326;19.122;2023-07-28T09:36:14;7.70;;;2.90;;
66800;SDS011;53703;50.326;19.122;2023-07-28T09:38:47;6.70;;;3.40;;
66800;SDS011;53703;50.326;19.122;2023-07-28T09:41:22;4.60;;;2.70;;
66800;SDS011;53703;50.326;19.122;2023-07-28T09:43:56;5.80;;;3.00;;
66800;SDS011;53703;50.326;19.122;2023-07-28T09:46:30;7.60;;;3.10;;
66800;SDS011;53703;50.326;19.122;2023-07-28T09:49:09;6.40;;;2.90;;
66800;SDS011;53703;50.326;19.122;2023-07-28T09:51:43;5.80;;;3.10;;
66800;SDS011;53703;50.326;19.122;2023-07-28T09:54:20;5.10;;;3.10;;
66800;SDS011;53703;50.326;19.122;2023-07-28T09:56:58;5.50;;;3.20;;
66800;SDS011;53703;50.326;19.122;2023-07-28T09:59:35;6.00;;;3.40;;
66800;SDS011;53703;50.326;19.122;2023-07-28T10:02:10;5.80;;;3.30;;
66800;SDS011;53703;50.326;19.122;2023-07-28T10:04:43;5.00;;;3.00;;
66800;SDS011;53703;50.326;19.122;2023-07-28T10:07:17;6.40;;;3.40;;
66800;SDS011;53703;50.326;19.122;2023-07-28T10:09:50;8.40;;;3.00;;
66800;SDS011;53703;50.326;19.122;2023-07-28T10:12:26;7.10;;;3.40;;
66800;SDS011;53703;50.326;19.122;2023-07-28T10:15:03;6.90;;;3.20;;
66800;SDS011;53703;50.326;19.122;2023-07-28T10:17:37;5.00;;;2.90;;
66800;SDS011;53703;50.326;19.122;2023-07-28T10:20:31;6.40;;;3.00;;
66800;SDS011;53703;50.326;19.122;2023-07-28T10:23:13;5.80;;;3.30;;
66800;SDS011;53703;50.326;19.122;2023-07-28T10:25:47;5.10;;;2.70;;
66800;SDS011;53703;50.326;19.122;2023-07-28T10:28:31;7.80;;;3.30;;
66800;SDS011;53703;50.326;19.122;2023-07-28T10:31:09;4.40;;;2.70;;
66800;SDS011;53703;50.326;19.122;2023-07-28T10:33:46;5.30;;;2.50;;
66800;SDS011;53703;50.326;19.122;2023-07-28T10:36:32;5.00;;;2.60;;
66800;SDS011;53703;50.326;19.122;2023-07-28T10:39:16;5.50;;;3.00;;
66800;SDS011;53703;50.326;19.122;2023-07-28T10:42:12;5.30;;;2.70;;
66800;SDS011;53703;50.326;19.122;2023-07-28T10:44:46;5.20;;;2.50;;
66800;SDS011;53703;50.326;19.122;2023-07-28T10:47:19;5.60;;;2.70;;
66800;SDS011;53703;50.326;19.122;2023-07-28T10:49:53;5.00;;;2.80;;
66800;SDS011;53703;50.326;19.122;2023-07-28T10:52:27;5.10;;;2.80;;
66800;SDS011;53703;50.326;19.122;2023-07-28T10:55:00;6.40;;;2.60;;
66800;SDS011;53703;50.326;19.122;2023-07-28T10:57:34;6.80;;;2.80;;
66800;SDS011;53703;50.326;19.122;2023-07-28T11:00:10;5.50;;;2.60;;
66800;SDS011;53703;50.326;19.122;2023-07-28T11:02:46;6.00;;;2.80;;
66800;SDS011;53703;50.326;19.122;2023-07-28T11:05:22;5.50;;;2.90;;
66800;SDS011;53703;50.326;19.122;2023-07-28T11:07:57;5.60;;;2.80;;
66800;SDS011;53703;50.326;19.122;2023-07-28T11:10:32;4.40;;;2.60;;
66800;SDS011;53703;50.326;19.122;2023-07-28T11:13:08;5.00;;;2.80;;
66800;SDS011;53703;50.326;19.122;2023-07-28T11:16:02;4.20;;;2.40;;
66800;SDS011;53703;50.326;19.122;2023-07-28T11:18:36;5.10;;;2.50;;
66800;SDS011;53703;50.326;19.122;2023-07-28T11:21:10;4.30;;;2.90;;
66800;SDS011;53703;50.326;19.122;2023-07-28T11:23:46;4.40;;;2.30;;
66800;SDS011;53703;50.326;19.122;2023-07-28T11:26:20;5.10;;;2.80;;
66800;SDS011;53703;50.326;19.122;2023-07-28T11:28:55;4.40;;;2.60;;
66800;SDS011;53703;50.326;19.122;2023-07-28T11:31:28;3.70;;;2.50;;
66800;SDS011;53703;50.326;19.122;2023-07-28T11:34:04;4.60;;;2.80;;
66800;SDS011;53703;50.326;19.122;2023-07-28T11:36:46;5.30;;;2.70;;
66800;SDS011;53703;50.326;19.122;2023-07-28T11:39:19;5.60;;;2.50;;
66800;SDS011;53703;50.326;19.122;2023-07-28T11:41:53;4.50;;;2.40;;
66800;SDS011;53703;50.326;19.122;2023-07-28T11:44:26;4.70;;;3.00;;
66800;SDS011;53703;50.326;19.122;2023-07-28T11:47:00;4.90;;;2.20;;
66800;SDS011;53703;50.326;19.122;2023-07-28T11:49:47;3.50;;;2.20;;
66800;SDS011;53703;50.326;19.122;2023-07-28T11:52:21;3.20;;;2.10;;
66800;SDS011;53703;50.326;19.122;2023-07-28T11:54:54;3.00;;;1.90;;
66800;SDS011;53703;50.326;19.122;2023-07-28T11:57:28;3.50;;;2.10;;
66800;SDS011;53703;50.326;19.122;2023-07-28T12:00:03;3.50;;;2.10;;
66800;SDS011;53703;50.326;19.122;2023-07-28T12:02:39;4.90;;;2.10;;
66800;SDS011;53703;50.326;19.122;2023-07-28T12:05:16;5.30;;;2.20;;
66800;SDS011;53703;50.326;19.122;2023-07-28T12:10:23;4.60;;;2.30;;
66800;SDS011;53703;50.326;19.122;2023-07-28T12:13:05;4.50;;;2.20;;
66800;SDS011;53703;50.326;19.122;2023-07-28T12:15:43;4.40;;;2.50;;
66800;SDS011;53703;50.326;19.122;2023-07-28T12:18:20;4.20;;;2.20;;
66800;SDS011;53703;50.326;19.122;2023-07-28T12:20:57;3.30;;;2.00;;
66800;SDS011;53703;50.326;19.122;2023-07-28T12:23:30;3.40;;;2.00;;
66800;SDS011;53703;50.326;19.122;2023-07-28T12:26:06;4.40;;;2.20;;
66800;SDS011;53703;50.326;19.122;2023-07-28T12:28:40;2.90;;;1.90;;
66800;SDS011;53703;50.326;19.122;2023-07-28T12:31:14;4.80;;;2.20;;
66800;SDS011;53703;50.326;19.122;2023-07-28T12:33:47;2.70;;;2.10;;
66800;SDS011;53703;50.326;19.122;2023-07-28T12:36:31;3.70;;;2.00;;
66800;SDS011;53703;50.326;19.122;2023-07-28T12:39:07;2.90;;;2.10;;
66800;SDS011;53703;50.326;19.122;2023-07-28T12:41:44;2.90;;;2.10;;
66800;SDS011;53703;50.326;19.122;2023-07-28T12:44:37;3.20;;;2.00;;
66800;SDS011;53703;50.326;19.122;2023-07-28T12:47:15;3.40;;;2.30;;
66800;SDS011;53703;50.326;19.122;2023-07-28T12:49:49;3.10;;;2.10;;
66800;SDS011;53703;50.326;19.122;2023-07-28T12:52:22;3.50;;;1.90;;
66800;SDS011;53703;50.326;19.122;2023-07-28T12:55:16;3.00;;;1.90;;
66800;SDS011;53703;50.326;19.122;2023-07-28T12:57:50;3.60;;;1.80;;
66800;SDS011;53703;50.326;19.122;2023-07-28T13:00:23;3.20;;;2.00;;
66800;SDS011;53703;50.326;19.122;2023-07-28T13:03:00;3.60;;;2.10;;
66800;SDS011;53703;50.326;19.122;2023-07-28T13:05:33;4.20;;;2.20;;
66800;SDS011;53703;50.326;19.122;2023-07-28T13:08:06;3.20;;;2.00;;
66800;SDS011;53703;50.326;19.122;2023-07-28T13:10:40;2.60;;;1.80;;
66800;SDS011;53703;50.326;19.122;2023-07-28T13:13:17;2.80;;;1.70;;
66800;SDS011;53703;50.326;19.122;2023-07-28T13:15:50;3.10;;;2.00;;
66800;SDS011;53703;50.326;19.122;2023-07-28T13:18:24;3.40;;;1.80;;
66800;SDS011;53703;50.326;19.122;2023-07-28T13:20:57;3.20;;;1.90;;
66800;SDS011;53703;50.326;19.122;2023-07-28T13:23:31;2.40;;;1.70;;
66800;SDS011;53703;50.326;19.122;2023-07-28T13:26:04;2.30;;;1.90;;
66800;SDS011;53703;50.326;19.122;2023-07-28T13:28:38;3.00;;;1.90;;
66800;SDS011;53703;50.326;19.122;2023-07-28T13:31:18;3.30;;;1.70;;
66800;SDS011;53703;50.326;19.122;2023-07-28T13:33:51;2.60;;;1.80;;
66800;SDS011;53703;50.326;19.122;2023-07-28T13:36:28;3.40;;;1.80;;
66800;SDS011;53703;50.326;19.122;2023-07-28T13:39:01;3.00;;;1.80;;
66800;SDS011;53703;50.326;19.122;2023-07-28T13:41:34;2.10;;;1.70;;
66800;SDS011;53703;50.326;19.122;2023-07-28T13:44:08;2.70;;;1.90;;
66800;SDS011;53703;50.326;19.122;2023-07-28T13:46:44;2.50;;;1.80;;
66800;SDS011;53703;50.326;19.122;2023-07-28T13:49:18;2.50;;;1.70;;
66800;SDS011;53703;50.326;19.122;2023-07-28T13:51:51;3.00;;;1.90;;
66800;SDS011;53703;50.326;19.122;2023-07-28T13:54:28;2.70;;;1.80;;
66800;SDS011;53703;50.326;19.122;2023-07-28T13:57:21;2.30;;;1.60;;
66800;SDS011;53703;50.326;19.122;2023-07-28T13:59:54;2.30;;;1.50;;
66800;SDS011;53703;50.326;19.122;2023-07-28T14:02:27;3.50;;;1.60;;
66800;SDS011;53703;50.326;19.122;2023-07-28T14:05:01;2.40;;;1.60;;
66800;SDS011;53703;50.326;19.122;2023-07-28T14:07:35;2.30;;;1.40;;
66800;SDS011;53703;50.326;19.122;2023-07-28T14:10:09;2.80;;;1.80;;
66800;SDS011;53703;50.326;19.122;2023-07-28T14:12:43;2.20;;;1.60;;
66800;SDS011;53703;50.326;19.122;2023-07-28T14:15:16;2.00;;;1.60;;
66800;SDS011;53703;50.326;19.122;2023-07-28T14:17:49;2.90;;;1.60;;
66800;SDS011;53703;50.326;19.122;2023-07-28T14:20:23;3.00;;;1.80;;
66800;SDS011;53703;50.326;19.122;2023-07-28T14:22:59;3.60;;;1.70;;
66800;SDS011;53703;50.326;19.122;2023-07-28T14:25:32;2.80;;;1.70;;
66800;SDS011;53703;50.326;19.122;2023-07-28T14:28:05;2.80;;;1.80;;
66800;SDS011;53703;50.326;19.122;2023-07-28T14:30:39;2.70;;;1.70;;
66800;SDS011;53703;50.326;19.122;2023-07-28T14:33:17;4.90;;;1.80;;
66800;SDS011;53703;50.326;19.122;2023-07-28T14:35:50;3.30;;;1.90;;
66800;SDS011;53703;50.326;19.122;2023-07-28T14:38:24;3.30;;;1.80;;
66800;SDS011;53703;50.326;19.122;2023-07-28T14:40:57;2.30;;;1.70;;
66800;SDS011;53703;50.326;19.122;2023-07-28T14:43:30;4.20;;;1.80;;
66800;SDS011;53703;50.326;19.122;2023-07-28T14:46:04;3.20;;;1.70;;
66800;SDS011;53703;50.326;19.122;2023-07-28T14:48:37;4.10;;;1.70;;
66800;SDS011;53703;50.326;19.122;2023-07-28T14:51:10;3.70;;;1.60;;
66800;SDS011;53703;50.326;19.122;2023-07-28T14:53:44;2.80;;;1.60;;
66800;SDS011;53703;50.326;19.122;2023-07-28T14:56:17;3.20;;;1.80;;
66800;SDS011;53703;50.326;19.122;2023-07-28T14:58:54;2.60;;;1.70;;
66800;SDS011;53703;50.326;19.122;2023-07-28T15:01:28;2.40;;;1.60;;
66800;SDS011;53703;50.326;19.122;2023-07-28T15:04:04;2.90;;;1.50;;
66800;SDS011;53703;50.326;19.122;2023-07-28T15:06:37;2.60;;;1.60;;
66800;SDS011;53703;50.326;19.122;2023-07-28T15:09:14;2.90;;;1.80;;
66800;SDS011;53703;50.326;19.122;2023-07-28T15:11:53;6.90;;;1.70;;
66800;SDS011;53703;50.326;19.122;2023-07-28T15:14:26;2.90;;;1.70;;
66800;SDS011;53703;50.326;19.122;2023-07-28T15:16:59;3.40;;;1.60;;
66800;SDS011;53703;50.326;19.122;2023-07-28T15:19:32;1.90;;;1.40;;